Time;durP1;ratioP1;P1;durP2;ratioP2;P2;SDS_P1;SDS_P2;PMS_P1;PMS_P2;Temp;Humidity;BMP_temperature;BMP_pressure;BME280_temperature;BME280_humidity;BME280_pressure;Samples;Min_cycle;Max_cycle;Signal;HPM_P1;HPM_P2
2024/03/17 00:01:36;;;;;;;;;;;10.40;98.60;;;;;;5007316;28;20139;-72
2024/03/17 00:04:02;;;;;;;;;;;10.30;98.90;;;;;;5008116;28;20077;-73
2024/03/17 00:06:29;;;;;;;;;;;10.30;98.80;;;;;;4999442;28;20264;-73
2024/03/17 00:08:55;;;;;;;;;;;10.20;99.00;;;;;;5002041;28;20001;-73
2024/03/17 00:11:20;;;;;;;;;;;10.30;98.90;;;;;;5001699;28;20516;-73
2024/03/17 00:13:47;;;;;;;;;;;10.20;99.10;;;;;;5001084;28;20401;-73
2024/03/17 00:16:13;;;;;;;;;;;10.10;99.40;;;;;;5002605;28;19995;-73
2024/03/17 00:18:39;;;;;;;;;;;10.00;99.70;;;;;;5003018;28;20027;-74
2024/03/17 00:21:04;;;;;;;;;;;10.00;99.80;;;;;;4998361;28;19990;-73
2024/03/17 00:23:30;;;;;;;;;;;10.00;99.90;;;;;;5002793;28;20381;-74
2024/03/17 00:25:55;;;;;;;;;;;10.00;99.90;;;;;;4997973;28;20002;-73
2024/03/17 00:28:21;;;;;;;;;;;9.90;99.90;;;;;;5002009;28;19990;-73
2024/03/17 00:30:46;;;;;;;;;;;9.90;99.90;;;;;;5002736;28;20082;-73
2024/03/17 00:33:14;;;;;;;;;;;10.00;99.70;;;;;;4999724;28;20017;-73
2024/03/17 00:35:39;;;;;;;;;;;10.10;99.60;;;;;;5002069;28;20071;-73
2024/03/17 00:38:10;;;;;;;;;;;10.00;99.50;;;;;;5005447;28;19991;-73
2024/03/17 00:40:36;;;;;;;;;;;10.00;99.70;;;;;;5001238;28;20060;-73
2024/03/17 00:43:02;;;;;;;;;;;10.10;99.40;;;;;;5001958;28;20722;-73
2024/03/17 00:45:27;;;;;;;;;;;10.10;99.20;;;;;;4999404;28;20068;-74
2024/03/17 00:47:53;;;;;;;;;;;10.10;99.20;;;;;;5002172;28;20729;-74
2024/03/17 00:50:19;;;;;;;;;;;10.10;99.30;;;;;;5000185;28;20534;-74
2024/03/17 00:52:44;;;;;;;;;;;10.00;99.40;;;;;;5002410;28;20122;-74
2024/03/17 00:55:10;;;;;;;;;;;10.10;99.40;;;;;;5009146;28;20041;-73
2024/03/17 00:57:36;;;;;;;;;;;10.00;99.60;;;;;;5001662;28;20183;-74
2024/03/17 01:00:03;;;;;;;;;;;9.90;99.70;;;;;;5004436;28;19994;-74
2024/03/17 01:02:28;;;;;;;;;;;9.90;99.70;;;;;;5002489;28;20010;-73
2024/03/17 01:04:54;;;;;;;;;;;9.90;99.80;;;;;;5004062;28;19995;-74
2024/03/17 01:07:19;;;;;;;;;;;9.90;99.80;;;;;;4999968;28;20018;-73
2024/03/17 01:09:47;;;;;;;;;;;9.90;99.90;;;;;;5000706;28;20022;-74
2024/03/17 01:12:13;;;;;;;;;;;9.80;99.90;;;;;;5003165;28;20049;-74
2024/03/17 01:14:38;;;;;;;;;;;9.90;99.90;;;;;;5000816;28;20005;-74
2024/03/17 01:17:04;;;;;;;;;;;9.80;99.90;;;;;;5001040;28;20002;-74
2024/03/17 01:19:30;;;;;;;;;;;9.70;99.90;;;;;;5007449;28;20033;-74
2024/03/17 01:21:56;;;;;;;;;;;9.70;99.90;;;;;;4996632;28;20121;-74
2024/03/17 01:24:22;;;;;;;;;;;9.70;99.90;;;;;;4990996;28;20086;-74
2024/03/17 01:26:47;;;;;;;;;;;9.80;99.90;;;;;;4989619;28;20756;-74
2024/03/17 01:29:13;;;;;;;;;;;9.90;99.90;;;;;;4991587;28;19994;-74
2024/03/17 01:31:39;;;;;;;;;;;9.90;99.90;;;;;;5002960;28;19990;-74
2024/03/17 01:34:04;;;;;;;;;;;10.00;99.90;;;;;;5007558;28;20022;-74
2024/03/17 01:36:30;;;;;;;;;;;10.10;99.90;;;;;;5006106;28;19998;-74
2024/03/17 01:38:56;;;;;;;;;;;10.10;99.90;;;;;;5005409;28;20098;-74
2024/03/17 01:41:21;;;;;;;;;;;10.00;99.90;;;;;;5005891;28;19994;-74
2024/03/17 01:43:47;;;;;;;;;;;10.00;99.90;;;;;;5004681;28;20020;-73
2024/03/17 01:46:13;;;;;;;;;;;10.00;99.90;;;;;;5005946;28;19995;-76
2024/03/17 01:48:39;;;;;;;;;;;9.90;99.90;;;;;;5004393;28;19990;-74
2024/03/17 01:51:05;;;;;;;;;;;9.90;99.90;;;;;;5005607;28;19994;-74
2024/03/17 01:53:31;;;;;;;;;;;9.80;99.90;;;;;;5009562;28;20110;-74
2024/03/17 01:55:57;;;;;;;;;;;9.80;99.90;;;;;;5011205;28;20454;-74
2024/03/17 01:58:25;;;;;;;;;;;9.80;99.90;;;;;;5003981;28;20058;-74
2024/03/17 02:00:51;;;;;;;;;;;9.70;99.90;;;;;;5007586;28;19994;-74
2024/03/17 02:03:17;;;;;;;;;;;9.80;99.90;;;;;;5009257;28;20093;-74
2024/03/17 02:05:43;;;;;;;;;;;9.80;99.90;;;;;;5005532;28;20809;-74
2024/03/17 02:08:10;;;;;;;;;;;9.80;99.90;;;;;;5004643;28;20851;-74
2024/03/17 02:10:35;;;;;;;;;;;9.70;99.90;;;;;;5004043;28;20000;-74
2024/03/17 02:13:03;;;;;;;;;;;9.70;99.90;;;;;;5005556;28;20225;-74
2024/03/17 02:15:29;;;;;;;;;;;9.70;99.90;;;;;;5003395;28;20502;-74
2024/03/17 02:17:55;;;;;;;;;;;9.70;99.90;;;;;;5005298;28;20104;-74
2024/03/17 02:20:24;;;;;;;;;;;9.80;99.90;;;;;;5003483;28;19986;-74
2024/03/17 02:22:50;;;;;;;;;;;9.80;99.90;;;;;;5002479;28;20014;-75
2024/03/17 02:25:15;;;;;;;;;;;9.80;99.90;;;;;;5004187;28;20005;-75
2024/03/17 02:27:41;;;;;;;;;;;9.80;99.90;;;;;;5006417;28;20085;-76
2024/03/17 02:30:09;;;;;;;;;;;9.80;99.90;;;;;;5010558;28;19993;-75
2024/03/17 02:32:35;;;;;;;;;;;9.80;99.90;;;;;;5005089;28;19994;-75
2024/03/17 02:35:00;;;;;;;;;;;9.80;99.90;;;;;;5005106;28;20529;-75
2024/03/17 02:37:26;;;;;;;;;;;9.80;99.90;;;;;;5004261;28;20080;-77
2024/03/17 02:39:52;;;;;;;;;;;9.70;99.90;;;;;;5003489;28;19994;-76
2024/03/17 02:42:18;;;;;;;;;;;9.70;99.90;;;;;;5001861;28;20006;-76
2024/03/17 02:44:45;;;;;;;;;;;9.70;99.90;;;;;;5004577;28;19994;-76
2024/03/17 02:47:11;;;;;;;;;;;9.60;99.90;;;;;;5004867;28;20002;-77
2024/03/17 02:49:37;;;;;;;;;;;9.60;99.90;;;;;;5001966;28;19987;-77
2024/03/17 02:52:09;;;;;;;;;;;9.60;99.90;;;;;;5001201;28;20002;-77
2024/03/17 02:54:36;;;;;;;;;;;9.50;99.90;;;;;;5008753;28;19995;-77
2024/03/17 02:57:01;;;;;;;;;;;9.50;99.90;;;;;;5004219;28;20023;-77
2024/03/17 02:59:27;;;;;;;;;;;9.50;99.90;;;;;;5003926;28;19998;-77
2024/03/17 03:01:53;;;;;;;;;;;9.60;99.90;;;;;;5006534;28;20010;-77
2024/03/17 03:04:18;;;;;;;;;;;9.60;99.90;;;;;;5004884;28;20005;-77
2024/03/17 03:06:44;;;;;;;;;;;9.50;99.90;;;;;;5004337;28;20409;-77
2024/03/17 03:09:13;;;;;;;;;;;9.40;99.90;;;;;;5004827;28;20428;-77
2024/03/17 03:11:42;;;;;;;;;;;9.40;99.90;;;;;;5003697;28;20458;-78
2024/03/17 03:14:08;;;;;;;;;;;9.30;99.90;;;;;;5004649;28;20556;-77
2024/03/17 03:16:33;;;;;;;;;;;9.30;99.90;;;;;;5004984;28;20020;-77
2024/03/17 03:18:59;;;;;;;;;;;9.40;99.90;;;;;;5006303;28;20046;-77
2024/03/17 03:21:25;;;;;;;;;;;9.40;99.90;;;;;;5005109;28;20105;-78
2024/03/17 03:23:51;;;;;;;;;;;9.40;99.90;;;;;;5008174;28;20513;-77
2024/03/17 03:26:17;;;;;;;;;;;9.40;99.90;;;;;;5007609;28;19994;-78
2024/03/17 03:28:43;;;;;;;;;;;9.40;99.90;;;;;;5005961;28;20001;-77
2024/03/17 03:31:15;;;;;;;;;;;9.40;99.90;;;;;;5004857;28;19995;-77
2024/03/17 03:33:41;;;;;;;;;;;9.40;99.90;;;;;;5004939;28;19990;-77
2024/03/17 03:36:16;;;;;;;;;;;9.40;99.90;;;;;;5006730;28;19990;-77
2024/03/17 03:38:42;;;;;;;;;;;9.50;99.90;;;;;;5011419;28;20074;-77
2024/03/17 03:41:12;;;;;;;;;;;9.50;99.90;;;;;;5008761;28;19990;-77
2024/03/17 03:43:38;;;;;;;;;;;9.60;99.90;;;;;;5011963;28;20006;-77
2024/03/17 03:46:04;;;;;;;;;;;9.60;99.90;;;;;;5009622;28;19994;-77
2024/03/17 03:48:30;;;;;;;;;;;9.60;99.90;;;;;;5010940;28;20005;-78
2024/03/17 03:50:55;;;;;;;;;;;9.60;99.90;;;;;;5016123;28;19990;-77
2024/03/17 03:53:22;;;;;;;;;;;9.60;99.90;;;;;;5014230;28;20204;-77
2024/03/17 03:55:48;;;;;;;;;;;9.70;99.90;;;;;;5007263;28;20050;-78
2024/03/17 03:58:14;;;;;;;;;;;9.60;99.90;;;;;;5006977;28;20029;-78
2024/03/17 04:00:40;;;;;;;;;;;9.60;99.90;;;;;;5008266;28;19990;-78
2024/03/17 04:03:05;;;;;;;;;;;9.50;99.90;;;;;;5007902;28;20528;-77
2024/03/17 04:05:31;;;;;;;;;;;9.50;99.90;;;;;;5010444;28;20095;-77
2024/03/17 04:07:57;;;;;;;;;;;9.50;99.90;;;;;;5012961;28;19986;-77
2024/03/17 04:10:23;;;;;;;;;;;9.50;99.90;;;;;;5004363;28;19992;-78
2024/03/17 04:12:49;;;;;;;;;;;9.50;99.90;;;;;;5006434;28;20828;-78
2024/03/17 04:15:15;;;;;;;;;;;9.40;99.90;;;;;;5004160;28;19995;-77
2024/03/17 04:17:42;;;;;;;;;;;9.40;99.90;;;;;;5004488;28;20001;-77
2024/03/17 04:20:13;;;;;;;;;;;9.40;99.90;;;;;;5006295;28;19986;-77
2024/03/17 04:22:39;;;;;;;;;;;9.40;99.90;;;;;;5036043;28;20010;-78
2024/03/17 04:25:04;;;;;;;;;;;9.40;99.90;;;;;;5006370;28;20176;-78
2024/03/17 04:27:30;;;;;;;;;;;9.50;99.90;;;;;;5004516;28;19998;-78
2024/03/17 04:29:57;;;;;;;;;;;9.60;99.90;;;;;;5007758;28;19998;-77
2024/03/17 04:32:23;;;;;;;;;;;9.60;99.90;;;;;;5002683;28;20437;-77
2024/03/17 04:34:48;;;;;;;;;;;9.50;99.90;;;;;;5008632;28;20385;-78
2024/03/17 04:37:14;;;;;;;;;;;9.60;99.90;;;;;;5005502;28;20001;-77
2024/03/17 04:39:42;;;;;;;;;;;9.70;99.90;;;;;;5011165;28;20063;-77
2024/03/17 04:42:08;;;;;;;;;;;9.70;99.90;;;;;;5015219;28;20033;-77
2024/03/17 04:44:34;;;;;;;;;;;9.60;99.90;;;;;;5005697;28;20006;-77
2024/03/17 04:47:00;;;;;;;;;;;9.60;99.90;;;;;;5016563;28;19997;-77
2024/03/17 04:49:25;;;;;;;;;;;9.60;99.90;;;;;;5012873;28;20708;-77
2024/03/17 04:51:51;;;;;;;;;;;9.50;99.90;;;;;;5002848;28;20755;-77
2024/03/17 04:54:16;;;;;;;;;;;9.50;99.90;;;;;;5013236;28;20671;-77
2024/03/17 04:56:42;;;;;;;;;;;9.50;99.90;;;;;;5013581;28;20113;-77
2024/03/17 04:59:07;;;;;;;;;;;9.40;99.90;;;;;;5002305;28;20499;-77
2024/03/17 05:01:36;;;;;;;;;;;9.40;99.90;;;;;;5002963;28;20093;-77
2024/03/17 05:04:04;;;;;;;;;;;9.40;99.90;;;;;;5005264;28;20014;-77
2024/03/17 05:06:30;;;;;;;;;;;9.40;99.90;;;;;;5009858;28;20002;-77
2024/03/17 05:08:56;;;;;;;;;;;9.40;99.90;;;;;;5008729;28;19994;-76
2024/03/17 05:11:23;;;;;;;;;;;9.30;99.90;;;;;;5012680;28;20033;-77
2024/03/17 05:13:49;;;;;;;;;;;9.30;99.90;;;;;;5009605;28;19998;-77
2024/03/17 05:16:15;;;;;;;;;;;9.30;99.90;;;;;;5012080;28;20020;-76
2024/03/17 05:18:41;;;;;;;;;;;9.30;99.90;;;;;;5011426;28;19990;-77
2024/03/17 05:21:06;;;;;;;;;;;9.30;99.90;;;;;;5012803;28;20488;-77
2024/03/17 05:23:33;;;;;;;;;;;9.40;99.90;;;;;;5013129;28;20049;-76
2024/03/17 05:25:59;;;;;;;;;;;9.30;99.90;;;;;;5015622;28;19994;-77
2024/03/17 05:28:25;;;;;;;;;;;9.40;99.90;;;;;;5009195;28;19995;-77
2024/03/17 05:30:52;;;;;;;;;;;9.40;99.90;;;;;;5012283;28;20041;-76
2024/03/17 05:33:23;;;;;;;;;;;9.40;99.90;;;;;;5009982;28;20010;-76
2024/03/17 05:35:52;;;;;;;;;;;9.50;99.90;;;;;;5013159;28;20028;-76
2024/03/17 05:38:21;;;;;;;;;;;9.50;99.90;;;;;;5035715;28;20033;-76
2024/03/17 05:40:57;;;;;;;;;;;9.50;99.90;;;;;;5013903;28;19997;-76
2024/03/17 05:43:23;;;;;;;;;;;9.60;99.90;;;;;;5007579;28;20009;-76
2024/03/17 05:45:51;;;;;;;;;;;9.60;99.90;;;;;;5019065;28;19998;-77
2024/03/17 05:48:17;;;;;;;;;;;9.70;99.80;;;;;;5012566;28;20009;-76
2024/03/17 05:50:42;;;;;;;;;;;9.70;99.70;;;;;;5016325;28;19994;-76
2024/03/17 05:53:08;;;;;;;;;;;9.60;99.80;;;;;;5012141;28;20451;-76
2024/03/17 05:55:37;;;;;;;;;;;9.50;99.90;;;;;;5022772;28;20025;-76
2024/03/17 05:58:03;;;;;;;;;;;9.50;99.90;;;;;;5008824;28;20109;-77
2024/03/17 06:00:29;;;;;;;;;;;9.50;99.90;;;;;;5008664;28;20421;-76
2024/03/17 06:02:54;;;;;;;;;;;9.60;99.90;;;;;;5009815;28;20087;-77
2024/03/17 06:05:20;;;;;;;;;;;9.60;99.90;;;;;;5009171;28;19990;-76
2024/03/17 06:07:47;;;;;;;;;;;9.60;99.90;;;;;;5008568;28;19994;-76
2024/03/17 06:10:12;;;;;;;;;;;9.60;99.90;;;;;;5010531;28;20089;-76
2024/03/17 06:12:38;;;;;;;;;;;9.60;99.90;;;;;;5011635;28;19995;-76
2024/03/17 06:15:03;;;;;;;;;;;9.60;99.90;;;;;;5007619;28;20045;-77
2024/03/17 06:17:30;;;;;;;;;;;9.60;99.90;;;;;;5006825;28;20089;-76
2024/03/17 06:19:57;;;;;;;;;;;9.60;99.90;;;;;;5006106;28;19998;-77
2024/03/17 06:22:23;;;;;;;;;;;9.70;99.90;;;;;;5008742;28;20012;-76
2024/03/17 06:24:49;;;;;;;;;;;9.70;99.90;;;;;;5007403;28;20004;-76
2024/03/17 06:27:14;;;;;;;;;;;9.70;99.90;;;;;;5007151;28;20639;-76
2024/03/17 06:29:40;;;;;;;;;;;9.60;99.90;;;;;;5013213;28;20001;-76
2024/03/17 06:32:06;;;;;;;;;;;9.70;99.90;;;;;;5009357;28;20496;-76
2024/03/17 06:34:31;;;;;;;;;;;9.70;99.90;;;;;;5005573;28;20001;-76
2024/03/17 06:36:59;;;;;;;;;;;9.80;99.80;;;;;;5011516;28;20013;-76
2024/03/17 06:39:24;;;;;;;;;;;9.90;99.40;;;;;;5005063;28;19990;-76
2024/03/17 06:41:50;;;;;;;;;;;10.10;99.50;;;;;;5008188;28;20001;-76
2024/03/17 06:44:15;;;;;;;;;;;10.20;98.90;;;;;;5013462;28;19994;-76
2024/03/17 06:46:41;;;;;;;;;;;10.40;98.50;;;;;;5006900;28;19994;-77
2024/03/17 06:49:07;;;;;;;;;;;10.60;97.70;;;;;;5005466;28;19986;-76
2024/03/17 06:51:32;;;;;;;;;;;10.80;97.20;;;;;;5008229;28;20006;-76
2024/03/17 06:53:58;;;;;;;;;;;10.70;97.30;;;;;;5016137;28;20011;-77
2024/03/17 06:56:25;;;;;;;;;;;10.70;97.10;;;;;;5006262;28;20067;-77
2024/03/17 06:58:51;;;;;;;;;;;10.70;97.20;;;;;;5006812;28;20421;-76
2024/03/17 07:01:19;;;;;;;;;;;10.90;96.80;;;;;;5009148;28;19994;-77
2024/03/17 07:03:44;;;;;;;;;;;11.00;96.40;;;;;;5008724;28;20241;-77
2024/03/17 07:06:10;;;;;;;;;;;10.90;96.50;;;;;;5010419;28;20775;-77
2024/03/17 07:08:37;;;;;;;;;;;10.90;97.00;;;;;;5003674;28;20001;-78
2024/03/17 07:11:06;;;;;;;;;;;11.10;96.80;;;;;;5005034;28;20001;-78
2024/03/17 07:13:33;;;;;;;;;;;11.20;96.10;;;;;;5007068;28;19994;-78
2024/03/17 07:15:59;;;;;;;;;;;11.50;95.40;;;;;;5007571;28;19990;-77
2024/03/17 07:18:25;;;;;;;;;;;12.10;94.50;;;;;;5004086;28;20039;-77
2024/03/17 07:20:51;;;;;;;;;;;12.60;93.20;;;;;;5010227;28;19994;-77
2024/03/17 07:23:16;;;;;;;;;;;12.90;92.60;;;;;;5011313;28;20007;-78
2024/03/17 07:25:42;;;;;;;;;;;12.90;92.70;;;;;;5007531;28;20001;-78
2024/03/17 07:28:09;;;;;;;;;;;12.90;92.20;;;;;;5005061;28;19990;-79
2024/03/17 07:30:35;;;;;;;;;;;13.20;91.70;;;;;;5004479;28;19998;-78
2024/03/17 07:33:00;;;;;;;;;;;13.20;91.50;;;;;;5004413;28;20021;-78
2024/03/17 07:35:26;;;;;;;;;;;13.50;91.10;;;;;;5005402;28;19995;-79
2024/03/17 07:37:51;;;;;;;;;;;13.60;90.50;;;;;;5005112;28;20028;-79
2024/03/17 07:40:17;;;;;;;;;;;13.60;90.40;;;;;;5006058;28;19997;-79
2024/03/17 07:42:42;;;;;;;;;;;13.50;91.00;;;;;;5008204;28;20053;-78
2024/03/17 07:45:08;;;;;;;;;;;13.10;91.40;;;;;;5008862;28;19994;-79
2024/03/17 07:47:37;;;;;;;;;;;13.20;91.80;;;;;;5000914;28;19990;-78
2024/03/17 07:50:05;;;;;;;;;;;13.00;91.80;;;;;;5010799;28;19989;-78
2024/03/17 07:52:31;;;;;;;;;;;13.30;91.90;;;;;;5005181;28;20104;-78
2024/03/17 07:54:56;;;;;;;;;;;14.20;90.80;;;;;;5010337;28;20045;-79
2024/03/17 07:57:22;;;;;;;;;;;14.80;88.80;;;;;;5005825;28;20022;-79
2024/03/17 07:59:49;;;;;;;;;;;14.20;89.60;;;;;;5009593;28;20820;-78
2024/03/17 08:02:15;;;;;;;;;;;13.80;89.30;;;;;;5007101;28;20057;-80
2024/03/17 08:04:42;;;;;;;;;;;13.60;90.70;;;;;;5008372;28;20085;-79
2024/03/17 08:07:08;;;;;;;;;;;13.30;90.30;;;;;;5003452;28;20532;-79
2024/03/17 08:09:33;;;;;;;;;;;13.30;90.90;;;;;;5002932;28;19994;-79
2024/03/17 08:11:59;;;;;;;;;;;13.30;91.00;;;;;;5004417;28;19990;-78
2024/03/17 08:14:24;;;;;;;;;;;13.20;91.20;;;;;;5008093;28;19997;-79
2024/03/17 08:16:50;;;;;;;;;;;13.20;91.60;;;;;;5003183;28;19995;-78
2024/03/17 08:19:15;;;;;;;;;;;13.30;91.40;;;;;;5006048;28;20347;-78
2024/03/17 08:21:41;;;;;;;;;;;13.60;91.30;;;;;;5005122;28;19995;-78
2024/03/17 08:24:07;;;;;;;;;;;14.10;90.70;;;;;;5002615;28;20037;-79
2024/03/17 08:26:33;;;;;;;;;;;14.70;90.40;;;;;;5005164;28;20072;-78
2024/03/17 08:28:59;;;;;;;;;;;14.60;89.20;;;;;;5005580;28;19998;-78
2024/03/17 08:31:25;;;;;;;;;;;14.50;89.90;;;;;;5004354;28;19991;-77
2024/03/17 08:33:50;;;;;;;;;;;14.60;88.50;;;;;;5007027;28;20634;-77
2024/03/17 08:36:17;;;;;;;;;;;14.90;87.40;;;;;;5007837;28;20370;-77
2024/03/17 08:38:43;;;;;;;;;;;14.80;88.00;;;;;;5005815;28;20125;-77
2024/03/17 08:41:10;;;;;;;;;;;14.50;88.10;;;;;;5009750;28;20037;-77
2024/03/17 08:43:36;;;;;;;;;;;14.30;89.10;;;;;;5006456;28;20007;-77
2024/03/17 08:46:05;;;;;;;;;;;14.40;89.00;;;;;;5002953;28;20386;-78
2024/03/17 08:48:32;;;;;;;;;;;14.40;88.70;;;;;;4996582;28;20036;-77
2024/03/17 08:50:59;;;;;;;;;;;14.40;88.70;;;;;;5006979;28;20060;-77
2024/03/17 08:53:24;;;;;;;;;;;14.30;90.10;;;;;;5003203;28;19991;-77
2024/03/17 08:55:50;;;;;;;;;;;14.90;88.70;;;;;;5003268;28;19995;-78
2024/03/17 08:58:16;;;;;;;;;;;15.90;86.00;;;;;;5002503;28;20066;-78
2024/03/17 09:00:42;;;;;;;;;;;17.00;79.90;;;;;;5005518;28;20018;-78
2024/03/17 09:03:10;;;;;;;;;;;17.30;78.00;;;;;;5003295;28;20010;-78
2024/03/17 09:05:36;;;;;;;;;;;17.30;76.60;;;;;;5006075;28;19998;-77
2024/03/17 09:08:01;;;;;;;;;;;17.50;76.90;;;;;;5004432;28;19995;-78
2024/03/17 09:10:27;;;;;;;;;;;17.00;77.80;;;;;;5006341;28;20628;-78
2024/03/17 09:12:52;;;;;;;;;;;16.70;78.40;;;;;;5006472;28;20112;-78
2024/03/17 09:15:18;;;;;;;;;;;16.90;78.80;;;;;;5005116;28;20425;-78
2024/03/17 09:17:44;;;;;;;;;;;16.90;78.90;;;;;;5008547;28;20002;-78
2024/03/17 09:20:11;;;;;;;;;;;16.60;77.60;;;;;;5002062;28;20397;-78
2024/03/17 09:22:38;;;;;;;;;;;16.30;79.40;;;;;;5002801;28;20006;-75
2024/03/17 09:25:07;;;;;;;;;;;16.30;80.70;;;;;;5003013;28;20351;-74
2024/03/17 09:27:33;;;;;;;;;;;16.50;79.80;;;;;;4999289;28;20001;-75
2024/03/17 09:29:59;;;;;;;;;;;16.50;79.50;;;;;;5003407;28;20028;-75
2024/03/17 09:32:25;;;;;;;;;;;16.70;80.00;;;;;;5002463;28;19991;-75
2024/03/17 09:34:51;;;;;;;;;;;16.80;79.10;;;;;;5010360;28;19994;-75
2024/03/17 09:37:16;;;;;;;;;;;17.00;79.60;;;;;;5009804;28;19998;-75
2024/03/17 09:39:43;;;;;;;;;;;17.40;79.00;;;;;;5001428;28;20412;-75
2024/03/17 09:42:17;;;;;;;;;;;17.80;79.70;;;;;;5000319;28;20017;-75
2024/03/17 09:44:43;;;;;;;;;;;18.10;77.40;;;;;;4995095;28;20002;-75
2024/03/17 09:47:10;;;;;;;;;;;17.70;77.70;;;;;;5006533;28;19997;-75
2024/03/17 09:49:35;;;;;;;;;;;17.50;74.60;;;;;;5000978;28;20057;-75
2024/03/17 09:52:01;;;;;;;;;;;17.90;75.30;;;;;;5005029;28;20396;-75
2024/03/17 09:54:27;;;;;;;;;;;19.30;70.60;;;;;;5005787;28;20041;-74
2024/03/17 09:56:53;;;;;;;;;;;19.80;67.00;;;;;;5006428;28;20128;-74
2024/03/17 09:59:19;;;;;;;;;;;20.00;67.30;;;;;;5006174;28;19994;-74
2024/03/17 10:01:47;;;;;;;;;;;19.90;64.90;;;;;;5008028;28;19994;-74
2024/03/17 10:04:23;;;;;;;;;;;19.80;68.50;;;;;;5012247;28;20199;-74
2024/03/17 10:06:50;;;;;;;;;;;19.50;67.80;;;;;;4999973;28;19994;-74
2024/03/17 10:09:25;;;;;;;;;;;18.70;68.80;;;;;;5008201;28;19990;-73
2024/03/17 10:11:51;;;;;;;;;;;18.30;69.20;;;;;;5004053;28;20520;-74
2024/03/17 10:14:17;;;;;;;;;;;18.30;69.20;;;;;;5007853;28;20046;-74
2024/03/17 10:16:44;;;;;;;;;;;18.70;67.60;;;;;;5002536;28;20005;-73
2024/03/17 10:19:14;;;;;;;;;;;18.70;68.30;;;;;;5012644;28;20462;-74
2024/03/17 10:21:41;;;;;;;;;;;19.20;66.30;;;;;;5006137;28;20010;-74
2024/03/17 10:24:09;;;;;;;;;;;20.10;67.00;;;;;;5001729;28;20006;-73
2024/03/17 10:26:41;;;;;;;;;;;20.30;68.10;;;;;;5004445;28;20045;-75
2024/03/17 10:29:19;;;;;;;;;;;20.10;66.20;;;;;;5007467;28;20001;-74
2024/03/17 10:31:45;;;;;;;;;;;19.50;65.40;;;;;;5005546;28;19989;-72
2024/03/17 10:34:15;;;;;;;;;;;18.80;72.40;;;;;;5006862;28;20512;-72
2024/03/17 10:36:40;;;;;;;;;;;18.60;70.60;;;;;;5004956;28;20144;-72
2024/03/17 10:39:17;;;;;;;;;;;18.50;74.60;;;;;;5006942;28;20708;-72
2024/03/17 10:41:43;;;;;;;;;;;18.30;74.90;;;;;;5009120;28;20040;-72
2024/03/17 10:44:08;;;;;;;;;;;18.20;73.30;;;;;;5001399;28;20124;-72
2024/03/17 10:46:34;;;;;;;;;;;18.30;74.00;;;;;;5004532;28;20100;-73
2024/03/17 10:49:00;;;;;;;;;;;18.30;76.90;;;;;;5005154;28;19991;-73
2024/03/17 10:51:25;;;;;;;;;;;18.30;75.40;;;;;;5007466;28;20029;-74
2024/03/17 10:53:53;;;;;;;;;;;18.40;75.10;;;;;;5006889;28;19995;-73
2024/03/17 10:56:19;;;;;;;;;;;18.50;74.40;;;;;;5009574;28;19991;-73
2024/03/17 10:58:50;;;;;;;;;;;18.70;73.90;;;;;;5010166;28;20358;-73
2024/03/17 11:01:18;;;;;;;;;;;18.60;76.20;;;;;;5003446;28;20124;-73
2024/03/17 11:03:46;;;;;;;;;;;18.50;73.50;;;;;;5008246;28;20052;-73
2024/03/17 11:06:12;;;;;;;;;;;18.60;72.80;;;;;;5006675;28;19994;-73
2024/03/17 11:08:41;;;;;;;;;;;18.80;73.30;;;;;;5009905;28;20068;-73
2024/03/17 11:11:08;;;;;;;;;;;18.80;73.80;;;;;;5005054;28;20056;-74
2024/03/17 11:13:36;;;;;;;;;;;18.70;74.40;;;;;;5004330;28;20799;-73
2024/03/17 11:16:04;;;;;;;;;;;18.60;75.70;;;;;;5004113;28;19990;-73
2024/03/17 11:18:37;;;;;;;;;;;18.30;74.80;;;;;;5009194;28;19998;-73
2024/03/17 11:21:20;;;;;;;;;;;18.20;75.10;;;;;;5008500;28;20013;-73
2024/03/17 11:24:02;;;;;;;;;;;18.20;75.40;;;;;;5002293;28;20053;-73
2024/03/17 11:26:32;;;;;;;;;;;18.40;73.00;;;;;;5003733;28;20065;-73
2024/03/17 11:28:59;;;;;;;;;;;18.70;72.40;;;;;;5007293;28;20814;-73
2024/03/17 11:31:43;;;;;;;;;;;18.80;73.50;;;;;;5008573;28;19990;-73
2024/03/17 11:34:28;;;;;;;;;;;18.80;72.40;;;;;;5005480;28;20098;-73
2024/03/17 11:36:53;;;;;;;;;;;19.00;71.70;;;;;;5005247;28;20068;-73
2024/03/17 11:39:27;;;;;;;;;;;19.30;70.60;;;;;;5011043;28;19994;-73
2024/03/17 11:41:53;;;;;;;;;;;19.50;69.90;;;;;;5010959;28;20056;-72
2024/03/17 11:44:23;;;;;;;;;;;19.50;69.80;;;;;;5010289;28;20045;-73
2024/03/17 11:46:52;;;;;;;;;;;19.60;68.70;;;;;;5013371;28;19990;-73
2024/03/17 11:49:37;;;;;;;;;;;19.80;69.40;;;;;;5011027;28;20002;-73
2024/03/17 11:52:04;;;;;;;;;;;19.90;71.20;;;;;;4999578;28;20500;-72
2024/03/17 11:54:30;;;;;;;;;;;19.70;69.70;;;;;;5003501;28;19997;-73
2024/03/17 11:57:00;;;;;;;;;;;19.90;70.80;;;;;;5008335;28;20132;-73
2024/03/17 11:59:25;;;;;;;;;;;19.80;69.30;;;;;;5006097;28;19994;-73
2024/03/17 12:01:51;;;;;;;;;;;20.00;68.80;;;;;;5003661;28;19994;-73
2024/03/17 12:04:18;;;;;;;;;;;20.30;69.70;;;;;;5003883;28;20002;-73
2024/03/17 12:06:45;;;;;;;;;;;20.40;72.50;;;;;;5003866;28;20409;-73
2024/03/17 12:09:20;;;;;;;;;;;20.50;73.10;;;;;;5004525;28;20472;-73
2024/03/17 12:11:47;;;;;;;;;;;20.70;72.00;;;;;;5003156;28;19997;-73
2024/03/17 12:14:14;;;;;;;;;;;20.70;70.70;;;;;;5006747;28;20052;-73
2024/03/17 12:16:48;;;;;;;;;;;20.60;69.40;;;;;;5004151;28;19990;-73
2024/03/17 12:19:16;;;;;;;;;;;20.70;70.30;;;;;;5005690;28;19990;-73
2024/03/17 12:22:00;;;;;;;;;;;20.70;68.70;;;;;;4995411;28;20522;-74
2024/03/17 12:24:26;;;;;;;;;;;20.80;70.20;;;;;;5002488;28;20005;-73
2024/03/17 12:26:56;;;;;;;;;;;20.80;69.60;;;;;;5003849;28;20026;-73
2024/03/17 12:29:35;;;;;;;;;;;20.70;69.90;;;;;;5005894;28;20675;-73
2024/03/17 12:32:02;;;;;;;;;;;20.70;68.80;;;;;;5008364;28;19989;-73
2024/03/17 12:34:29;;;;;;;;;;;20.60;69.90;;;;;;5007293;28;19990;-73
2024/03/17 12:36:55;;;;;;;;;;;20.60;69.80;;;;;;5009340;28;20460;-73
2024/03/17 12:39:20;;;;;;;;;;;20.60;69.80;;;;;;5009703;28;19997;-73
2024/03/17 12:42:01;;;;;;;;;;;20.50;68.80;;;;;;5011445;28;20490;-73
2024/03/17 12:44:27;;;;;;;;;;;20.40;66.60;;;;;;5005967;28;20018;-73
2024/03/17 12:47:02;;;;;;;;;;;20.10;68.20;;;;;;5013318;28;19994;-73
2024/03/17 12:49:28;;;;;;;;;;;20.20;68.20;;;;;;5008992;28;19990;-73
2024/03/17 12:51:54;;;;;;;;;;;20.00;69.70;;;;;;5008344;28;20077;-73
2024/03/17 12:54:21;;;;;;;;;;;19.90;71.40;;;;;;5003489;28;20730;-73
2024/03/17 13:02:26;;;;;;;;;;;19.80;71.30;;;;;;5002924;28;20029;-73
2024/03/17 13:05:10;;;;;;;;;;;19.80;69.70;;;;;;5005227;28;19990;-73
2024/03/17 13:07:35;;;;;;;;;;;19.80;68.60;;;;;;4998945;28;19990;-73
2024/03/17 13:10:02;;;;;;;;;;;20.10;69.70;;;;;;5004036;28;19987;-73
2024/03/17 13:12:28;;;;;;;;;;;20.10;69.00;;;;;;5009181;28;20097;-73
2024/03/17 13:14:54;;;;;;;;;;;20.30;67.60;;;;;;5005511;28;20050;-73
2024/03/17 13:17:19;;;;;;;;;;;20.40;68.00;;;;;;5004629;28;19996;-73
2024/03/17 13:19:46;;;;;;;;;;;20.40;67.60;;;;;;5004497;28;19994;-73
2024/03/17 13:22:11;;;;;;;;;;;20.70;68.60;;;;;;5006135;28;19991;-73
2024/03/17 13:24:37;;;;;;;;;;;20.90;68.10;;;;;;5003162;28;19994;-73
2024/03/17 13:27:05;;;;;;;;;;;20.60;66.80;;;;;;5010123;28;20033;-73
2024/03/17 13:29:33;;;;;;;;;;;20.50;66.40;;;;;;5004586;28;19994;-73
2024/03/17 13:31:58;;;;;;;;;;;20.40;65.80;;;;;;5012044;28;19991;-73
2024/03/17 13:34:24;;;;;;;;;;;20.50;67.90;;;;;;5008670;28;19994;-73
2024/03/17 13:36:54;;;;;;;;;;;20.40;69.60;;;;;;5011456;28;20060;-73
2024/03/17 13:39:21;;;;;;;;;;;20.10;66.00;;;;;;5009536;28;20757;-74
2024/03/17 13:41:47;;;;;;;;;;;20.10;67.30;;;;;;5008747;28;20385;-73
2024/03/17 13:44:13;;;;;;;;;;;20.00;67.90;;;;;;5009527;28;20021;-73
2024/03/17 13:46:38;;;;;;;;;;;20.00;70.60;;;;;;5014228;28;20009;-73
2024/03/17 13:49:08;;;;;;;;;;;19.80;72.40;;;;;;5013165;28;20037;-73
2024/03/17 13:51:34;;;;;;;;;;;19.80;73.30;;;;;;5015807;28;20085;-73
2024/03/17 13:54:00;;;;;;;;;;;20.10;73.50;;;;;;5007436;28;19991;-74
2024/03/17 13:56:26;;;;;;;;;;;20.30;69.90;;;;;;5005944;28;19998;-73
2024/03/17 13:58:52;;;;;;;;;;;20.50;68.30;;;;;;5005672;28;20048;-73
2024/03/17 14:01:17;;;;;;;;;;;20.40;70.50;;;;;;5006902;28;20012;-73
2024/03/17 14:03:43;;;;;;;;;;;20.30;72.40;;;;;;5004592;28;20029;-73
2024/03/17 14:06:09;;;;;;;;;;;20.00;70.90;;;;;;5005805;28;19994;-73
2024/03/17 14:08:35;;;;;;;;;;;19.80;73.20;;;;;;5004691;28;19990;-73
2024/03/17 14:11:06;;;;;;;;;;;19.80;72.50;;;;;;5010671;28;19994;-72
2024/03/17 14:13:32;;;;;;;;;;;19.60;71.60;;;;;;5012512;28;19990;-72
2024/03/17 14:15:58;;;;;;;;;;;19.60;70.30;;;;;;5006609;28;19997;-73
2024/03/17 14:18:24;;;;;;;;;;;19.70;73.70;;;;;;5007541;28;20040;-73
2024/03/17 14:20:52;;;;;;;;;;;19.50;73.50;;;;;;5008127;28;19998;-73
2024/03/17 14:23:18;;;;;;;;;;;19.30;71.20;;;;;;5007339;28;20010;-72
2024/03/17 14:25:43;;;;;;;;;;;19.30;70.70;;;;;;5010941;28;20047;-77